createdAt,value
2019-03-23T00:01:54.324Z,4.10
2019-03-23T00:04:02.075Z,3.99
2019-03-23T00:06:09.761Z,3.88
2019-03-23T00:08:17.633Z,3.79
2019-03-23T00:10:25.346Z,3.71
2019-03-23T00:12:33.040Z,3.63
2019-03-23T00:14:40.875Z,3.58
2019-03-23T00:16:48.455Z,3.55
2019-03-23T00:18:56.286Z,3.54
2019-03-23T00:21:04.041Z,3.54
2019-03-23T00:23:11.631Z,3.54
2019-03-23T00:25:19.317Z,3.54
2019-03-23T00:27:30.159Z,3.53
2019-03-23T00:29:37.921Z,3.51
2019-03-23T00:31:45.661Z,3.51
2019-03-23T00:33:53.567Z,3.49
2019-03-23T00:36:01.405Z,3.47
2019-03-23T00:38:09.433Z,3.44
2019-03-23T00:40:17.218Z,3.41
2019-03-23T00:42:24.986Z,3.35
2019-03-23T00:44:32.845Z,3.30
2019-03-23T00:46:40.635Z,3.28
2019-03-23T00:48:48.296Z,3.23
2019-03-23T00:50:56.167Z,3.20
2019-03-23T00:53:04.107Z,3.16
2019-03-23T00:55:11.869Z,3.15
2019-03-23T00:57:19.607Z,3.12
2019-03-23T00:59:27.468Z,3.06
2019-03-23T01:01:35.118Z,3.07
2019-03-23T01:03:42.941Z,3.03
2019-03-23T01:05:50.716Z,3.09
2019-03-23T01:07:58.382Z,3.15
2019-03-23T01:10:11.491Z,3.17
2019-03-23T01:12:19.101Z,3.18
2019-03-23T01:14:26.865Z,3.20
2019-03-23T01:16:34.647Z,3.16
2019-03-23T01:18:42.510Z,3.11
2019-03-23T01:20:50.196Z,3.05
2019-03-23T01:22:58.192Z,2.98
2019-03-23T01:25:09.009Z,2.89
2019-03-23T01:27:16.670Z,2.82
2019-03-23T01:29:25.201Z,2.75
2019-03-23T01:31:33.117Z,2.70
2019-03-23T01:33:40.944Z,2.66
2019-03-23T01:35:48.635Z,2.63
2019-03-23T01:37:56.556Z,2.61
2019-03-23T01:40:05.784Z,2.56
2019-03-23T01:42:14.373Z,2.52
2019-03-23T01:44:22.257Z,2.57
2019-03-23T01:46:29.921Z,2.61
2019-03-23T01:48:38.863Z,2.64
2019-03-23T01:50:46.630Z,2.65
2019-03-23T01:52:54.258Z,2.63
2019-03-23T01:55:01.849Z,2.61
2019-03-23T01:57:09.635Z,2.57
2019-03-23T01:59:17.231Z,2.47
2019-03-23T02:01:24.955Z,2.45
2019-03-23T02:03:32.927Z,2.42
2019-03-23T02:05:40.705Z,2.42
2019-03-23T02:07:48.361Z,2.43
2019-03-23T02:09:56.318Z,2.46
2019-03-23T02:12:04.012Z,2.50
2019-03-23T02:14:11.779Z,2.54
2019-03-23T02:16:19.667Z,2.57
2019-03-23T02:18:28.672Z,2.60
2019-03-23T02:20:36.386Z,2.55
2019-03-23T02:22:44.244Z,2.55
2019-03-23T02:24:51.999Z,2.53
2019-03-23T02:26:59.689Z,2.53
2019-03-23T02:29:07.300Z,2.50
2019-03-23T02:31:14.888Z,2.48
2019-03-23T02:33:22.566Z,2.43
2019-03-23T02:35:30.350Z,2.39
2019-03-23T02:37:38.183Z,2.37
2019-03-23T02:39:46.851Z,2.35
2019-03-23T02:41:54.471Z,2.32
2019-03-23T02:44:02.063Z,2.24
2019-03-23T02:46:10.829Z,2.22
2019-03-23T02:48:18.528Z,2.19
2019-03-23T02:50:26.273Z,2.16
2019-03-23T02:52:33.927Z,2.11
2019-03-23T02:54:41.680Z,2.04
2019-03-23T02:56:49.371Z,2.05
2019-03-23T02:58:56.970Z,2.02
2019-03-23T03:01:04.771Z,2.00
2019-03-23T03:03:12.348Z,1.99
2019-03-23T03:05:20.034Z,1.96
2019-03-23T03:07:40.639Z,1.92
2019-03-23T03:09:37.178Z,1.91
2019-03-23T03:11:44.819Z,1.88
2019-03-23T03:13:52.555Z,1.87
2019-03-23T03:16:00.327Z,1.81
2019-03-23T03:18:08.821Z,1.77
2019-03-23T03:20:16.570Z,1.72
2019-03-23T03:22:24.266Z,1.71
2019-03-23T03:24:31.951Z,1.69
2019-03-23T03:26:40.857Z,1.66
2019-03-23T03:28:48.623Z,1.64
2019-03-23T03:30:56.461Z,1.62
2019-03-23T03:33:05.136Z,1.50
2019-03-23T03:35:13.055Z,1.49
2019-03-23T03:37:20.741Z,1.49
2019-03-23T03:39:28.471Z,1.44
2019-03-23T03:41:36.489Z,1.37
2019-03-23T03:43:44.243Z,1.31
2019-03-23T03:45:53.175Z,1.06
2019-03-23T03:48:00.858Z,0.91
2019-03-23T03:50:10.059Z,0.97
2019-03-23T03:52:17.784Z,0.98
2019-03-23T03:54:25.482Z,0.95
2019-03-23T03:56:34.426Z,0.88
2019-03-23T03:58:42.158Z,0.78
2019-03-23T04:00:49.854Z,0.79
2019-03-23T04:02:57.612Z,0.79
2019-03-23T04:05:06.329Z,0.73
2019-03-23T04:07:13.928Z,0.79
2019-03-23T04:09:21.759Z,0.84
2019-03-23T04:11:29.569Z,0.98
2019-03-23T04:13:38.426Z,1.05
2019-03-23T04:15:46.105Z,1.11
2019-03-23T04:17:53.994Z,1.13
2019-03-23T04:20:01.930Z,1.12
2019-03-23T04:22:09.586Z,1.14
2019-03-23T04:24:17.545Z,1.13
2019-03-23T04:26:25.241Z,1.11
2019-03-23T04:28:32.941Z,1.09
2019-03-23T04:30:40.791Z,1.04
2019-03-23T04:32:48.401Z,1.03
2019-03-23T04:34:57.933Z,0.97
2019-03-23T04:37:05.725Z,0.97
2019-03-23T04:39:13.551Z,0.98
2019-03-23T04:41:21.419Z,1.00
2019-03-23T04:43:29.202Z,0.99
2019-03-23T04:45:36.893Z,0.97
2019-03-23T04:47:44.750Z,0.97
2019-03-23T04:49:52.462Z,0.98
2019-03-23T04:52:00.228Z,0.98
2019-03-23T04:54:08.004Z,0.98
2019-03-23T04:56:15.927Z,1.00
2019-03-23T04:58:23.537Z,1.01
2019-03-23T05:00:31.331Z,1.03
2019-03-23T05:02:39.134Z,1.02
2019-03-23T05:04:47.432Z,1.04
2019-03-23T05:06:55.130Z,1.03
2019-03-23T05:09:03.219Z,1.01
2019-03-23T05:11:10.813Z,1.00
2019-03-23T05:13:19.840Z,0.99
2019-03-23T05:15:27.564Z,1.04
2019-03-23T05:17:35.786Z,1.02
2019-03-23T05:19:43.542Z,1.05
2019-03-23T05:21:51.227Z,1.07
2019-03-23T05:23:58.915Z,1.07
2019-03-23T05:26:06.671Z,1.10
2019-03-23T05:28:14.400Z,1.15
2019-03-23T05:30:22.091Z,1.17
2019-03-23T05:32:29.751Z,1.18
2019-03-23T05:34:37.475Z,1.23
2019-03-23T05:36:45.873Z,1.28
2019-03-23T05:38:53.569Z,1.32
2019-03-23T05:41:01.194Z,1.35
2019-03-23T05:43:08.918Z,1.36
2019-03-23T05:45:16.609Z,1.37
2019-03-23T05:47:24.434Z,1.42
2019-03-23T05:49:32.123Z,1.49
2019-03-23T05:51:39.845Z,1.53
2019-03-23T05:53:47.587Z,1.64
2019-03-23T05:55:55.271Z,1.71
2019-03-23T05:58:02.962Z,1.80
2019-03-23T06:00:12.869Z,1.93
2019-03-23T06:02:20.551Z,2.05
2019-03-23T06:04:28.367Z,2.18
2019-03-23T06:06:36.196Z,2.32
2019-03-23T06:08:54.268Z,2.45
2019-03-23T06:10:53.309Z,2.58
2019-03-23T06:13:01.011Z,2.70
2019-03-23T06:15:08.945Z,2.85
2019-03-23T06:17:16.640Z,2.98
2019-03-23T06:19:24.405Z,3.12
2019-03-23T06:21:32.080Z,3.26
2019-03-23T06:23:39.689Z,3.38
2019-03-23T06:25:47.335Z,3.53
2019-03-23T06:27:56.287Z,3.64
2019-03-23T06:30:04.818Z,3.78
2019-03-23T06:32:12.600Z,3.91
2019-03-23T06:34:20.166Z,4.03
2019-03-23T06:36:27.842Z,4.15
2019-03-23T06:38:36.138Z,4.25
2019-03-23T06:40:43.881Z,4.40
2019-03-23T06:42:59.413Z,4.51
2019-03-23T06:45:00.896Z,4.63
2019-03-23T06:47:08.572Z,4.78
2019-03-23T06:49:16.249Z,4.91
2019-03-23T06:51:24.033Z,5.02
2019-03-23T06:53:31.606Z,5.14
2019-03-23T06:55:39.367Z,5.24
2019-03-23T06:57:47.059Z,5.37
2019-03-23T06:59:54.741Z,5.48
2019-03-23T07:02:02.441Z,5.58
2019-03-23T07:04:10.166Z,5.72
2019-03-23T07:06:19.135Z,5.80
2019-03-23T07:08:31.897Z,5.92
2019-03-23T07:10:36.298Z,6.05
2019-03-23T07:12:44.037Z,6.14
2019-03-23T07:14:51.708Z,6.27
2019-03-23T07:16:59.462Z,6.38
2019-03-23T07:19:07.139Z,6.45
2019-03-23T07:21:14.943Z,6.56
2019-03-23T07:23:22.830Z,6.67
2019-03-23T07:25:30.458Z,6.77
2019-03-23T07:27:38.194Z,6.90
2019-03-23T07:29:45.903Z,7.01
2019-03-23T07:31:53.627Z,7.12
2019-03-23T07:34:01.303Z,7.21
2019-03-23T07:36:09.019Z,7.34
2019-03-23T07:38:16.849Z,7.37
2019-03-23T07:40:25.478Z,7.53
2019-03-23T07:42:33.181Z,7.63
2019-03-23T07:44:40.859Z,7.78
2019-03-23T07:46:48.433Z,7.92
2019-03-23T07:48:56.129Z,8.01
2019-03-23T07:51:03.807Z,8.11
2019-03-23T07:53:11.646Z,8.17
2019-03-23T07:55:20.653Z,8.35
2019-03-23T07:57:28.456Z,8.44
2019-03-23T07:59:36.208Z,8.56
2019-03-23T08:01:43.913Z,8.64
2019-03-23T08:03:52.391Z,8.74
2019-03-23T08:06:00.051Z,8.81
2019-03-23T08:08:07.820Z,8.91
2019-03-23T08:10:30.695Z,8.92
2019-03-23T08:12:38.266Z,8.96
2019-03-23T08:14:45.998Z,9.03
2019-03-23T08:16:53.571Z,9.13
2019-03-23T08:19:01.311Z,9.17
2019-03-23T08:21:08.911Z,9.18
2019-03-23T08:23:16.646Z,9.20
2019-03-23T08:25:24.424Z,9.35
2019-03-23T08:27:32.120Z,9.52
2019-03-23T08:29:39.801Z,9.62
2019-03-23T08:31:47.559Z,9.66
2019-03-23T08:33:55.363Z,9.76
2019-03-23T08:36:03.035Z,9.84
2019-03-23T08:38:10.715Z,9.97
2019-03-23T08:40:18.493Z,10.06
2019-03-23T08:42:27.179Z,10.14
2019-03-23T08:44:34.828Z,10.20
2019-03-23T08:46:42.611Z,10.26
2019-03-23T08:48:51.338Z,10.34
2019-03-23T08:50:59.268Z,10.40
2019-03-23T08:53:08.038Z,10.52
2019-03-23T08:55:15.721Z,10.40
2019-03-23T08:57:24.341Z,10.47
2019-03-23T08:59:32.079Z,10.58
2019-03-23T09:01:39.732Z,10.73
2019-03-23T09:03:52.552Z,10.81
2019-03-23T09:05:56.822Z,10.88
2019-03-23T09:08:04.735Z,10.88
2019-03-23T09:10:12.589Z,11.00
2019-03-23T09:12:20.442Z,11.19
2019-03-23T09:14:28.205Z,11.11
2019-03-23T09:16:35.894Z,10.99
2019-03-23T09:18:44.806Z,11.21
2019-03-23T09:20:52.577Z,11.33
2019-03-23T09:23:00.214Z,11.27
2019-03-23T09:25:09.654Z,11.30
2019-03-23T09:27:17.380Z,11.51
2019-03-23T09:29:25.219Z,11.55
2019-03-23T09:31:32.931Z,11.71
2019-03-23T09:33:40.525Z,11.80
2019-03-23T09:35:48.291Z,11.88
2019-03-23T09:37:55.911Z,11.95
2019-03-23T09:40:10.858Z,11.94
2019-03-23T09:42:13.166Z,11.93
2019-03-23T09:44:21.881Z,11.92
2019-03-23T09:46:29.535Z,12.13
2019-03-23T09:48:37.201Z,12.24
2019-03-23T09:50:46.124Z,12.30
2019-03-23T09:52:53.928Z,12.40
2019-03-23T09:55:01.623Z,12.47
2019-03-23T09:57:09.410Z,12.43
2019-03-23T09:59:18.077Z,12.49
2019-03-23T10:01:25.774Z,12.55
2019-03-23T10:03:33.467Z,12.68
2019-03-23T10:05:42.345Z,12.67
2019-03-23T10:07:50.040Z,12.63
2019-03-23T10:09:57.907Z,12.71
2019-03-23T10:12:05.680Z,12.82
2019-03-23T10:14:13.401Z,12.96
2019-03-23T10:16:21.192Z,13.03
2019-03-23T10:18:29.124Z,13.10
2019-03-23T10:20:36.817Z,13.09
2019-03-23T10:22:44.607Z,13.18
2019-03-23T10:24:53.532Z,13.27
2019-03-23T10:27:01.413Z,13.39
2019-03-23T10:29:09.407Z,13.43
2019-03-23T10:31:17.076Z,13.41
2019-03-23T10:33:24.790Z,13.41
2019-03-23T10:35:32.542Z,13.43
2019-03-23T10:37:40.260Z,13.47
2019-03-23T10:39:47.938Z,13.57
2019-03-23T10:41:55.580Z,13.62
2019-03-23T10:44:03.266Z,13.70
2019-03-23T10:46:11.882Z,13.68
2019-03-23T10:48:19.766Z,13.59
2019-03-23T10:50:27.608Z,13.69
2019-03-23T10:52:36.439Z,13.84
2019-03-23T10:54:44.141Z,13.87
2019-03-23T10:56:51.908Z,13.93
2019-03-23T10:58:59.663Z,13.95
2019-03-23T11:01:07.390Z,13.90
2019-03-23T11:03:15.214Z,14.10
2019-03-23T11:05:22.971Z,14.11
2019-03-23T11:07:30.680Z,14.22
2019-03-23T11:09:38.433Z,14.40
2019-03-23T11:11:46.089Z,14.36
2019-03-23T11:13:53.806Z,14.56
2019-03-23T11:16:01.487Z,14.45
2019-03-23T11:18:09.280Z,14.56
2019-03-23T11:20:17.135Z,14.69
2019-03-23T11:22:24.819Z,14.65
2019-03-23T11:24:32.570Z,14.64
2019-03-23T11:26:40.298Z,14.64
2019-03-23T11:28:48.182Z,14.64
2019-03-23T11:30:55.938Z,14.66
2019-03-23T11:33:03.721Z,14.72
2019-03-23T11:35:11.915Z,14.84
2019-03-23T11:37:19.757Z,14.92
2019-03-23T11:39:28.906Z,15.05
2019-03-23T11:41:36.488Z,15.17
2019-03-23T11:43:45.496Z,15.18
2019-03-23T11:45:53.286Z,15.24
2019-03-23T11:48:01.880Z,15.25
2019-03-23T11:50:11.512Z,15.26
2019-03-23T11:52:19.223Z,15.17
2019-03-23T11:54:26.911Z,15.26
2019-03-23T11:56:34.837Z,15.17
2019-03-23T11:58:42.553Z,15.27
2019-03-23T12:00:50.557Z,15.38
2019-03-23T12:02:58.344Z,15.39
2019-03-23T12:05:08.493Z,15.43
2019-03-23T12:07:16.153Z,15.26
2019-03-23T12:09:24.086Z,15.41
2019-03-23T12:11:31.921Z,15.45
2019-03-23T12:13:39.714Z,15.52
2019-03-23T12:15:47.414Z,15.42
2019-03-23T12:17:55.381Z,15.59
2019-03-23T12:20:03.255Z,15.72
2019-03-23T12:22:11.159Z,15.75
2019-03-23T12:24:18.942Z,15.71
2019-03-23T12:26:26.698Z,15.61
2019-03-23T12:28:34.392Z,15.55
2019-03-23T12:30:42.174Z,15.65
2019-03-23T12:32:49.984Z,15.44
2019-03-23T12:34:57.745Z,15.64
2019-03-23T12:37:05.841Z,15.73
2019-03-23T12:39:13.510Z,15.71
2019-03-23T12:41:23.224Z,15.60
2019-03-23T12:43:30.512Z,15.37
2019-03-23T12:45:38.927Z,15.40
2019-03-23T12:47:46.755Z,15.36
2019-03-23T12:49:55.020Z,15.41
2019-03-23T12:52:02.705Z,15.63
2019-03-23T12:54:10.362Z,15.63
2019-03-23T12:56:18.094Z,15.64
2019-03-23T12:58:25.917Z,15.54
2019-03-23T13:00:33.740Z,15.63
2019-03-23T13:02:41.510Z,15.78
2019-03-23T13:04:49.170Z,15.81
2019-03-23T13:06:57.028Z,15.83
2019-03-23T13:09:06.884Z,15.75
2019-03-23T13:11:23.111Z,15.73
2019-03-23T13:13:24.130Z,15.64
2019-03-23T13:15:31.953Z,15.58
2019-03-23T13:17:39.658Z,15.54
2019-03-23T13:19:47.515Z,15.59
2019-03-23T13:21:55.322Z,15.63
2019-03-23T13:24:03.020Z,15.67
2019-03-23T13:26:10.875Z,15.64
2019-03-23T13:28:18.668Z,15.61
2019-03-23T13:30:26.406Z,15.67
2019-03-23T13:32:35.056Z,15.70
2019-03-23T13:34:42.744Z,15.77
2019-03-23T13:36:50.503Z,15.75
2019-03-23T13:38:58.200Z,15.69
2019-03-23T13:41:07.632Z,15.67
2019-03-23T13:43:15.421Z,15.87
2019-03-23T13:45:23.111Z,15.85
2019-03-23T13:47:30.889Z,15.90
2019-03-23T13:49:38.644Z,15.82
2019-03-23T13:51:46.402Z,15.86
2019-03-23T13:53:54.247Z,15.90
2019-03-23T13:56:01.833Z,15.88
2019-03-23T13:58:14.547Z,15.85
2019-03-23T14:00:22.194Z,16.03
2019-03-23T14:02:29.944Z,15.85
2019-03-23T14:04:37.724Z,15.96
2019-03-23T14:06:45.343Z,16.11
2019-03-23T14:08:53.111Z,16.03
2019-03-23T14:11:00.967Z,16.12
2019-03-23T14:13:08.991Z,16.30
2019-03-23T14:15:16.840Z,16.37
2019-03-23T14:17:24.533Z,16.37
2019-03-23T14:19:32.256Z,16.37
2019-03-23T14:21:39.930Z,16.40
2019-03-23T14:23:47.509Z,16.47
2019-03-23T14:25:55.267Z,16.30
2019-03-23T14:28:03.067Z,16.19
2019-03-23T14:30:11.886Z,16.20
2019-03-23T14:32:19.584Z,16.11
2019-03-23T14:34:27.351Z,16.16
2019-03-23T14:36:35.304Z,16.19
2019-03-23T14:38:42.963Z,16.40
2019-03-23T14:40:50.674Z,16.47
2019-03-23T14:42:58.519Z,16.45
2019-03-23T14:45:09.463Z,16.47
2019-03-23T14:47:17.093Z,16.32
2019-03-23T14:49:24.814Z,16.29
2019-03-23T14:51:33.769Z,16.30
2019-03-23T14:53:43.645Z,16.53
2019-03-23T14:55:51.328Z,16.52
2019-03-23T14:57:59.046Z,16.41
2019-03-23T15:00:09.802Z,16.25
2019-03-23T15:02:17.524Z,16.42
2019-03-23T15:04:25.259Z,16.50
2019-03-23T15:06:32.848Z,16.43
2019-03-23T15:08:40.524Z,16.51
2019-03-23T15:10:48.137Z,16.20
2019-03-23T15:12:55.957Z,16.24
2019-03-23T15:15:04.427Z,16.30
2019-03-23T15:17:12.039Z,16.37
2019-03-23T15:19:20.795Z,16.38
2019-03-23T15:21:28.817Z,16.31
2019-03-23T15:23:36.657Z,16.27
2019-03-23T15:25:44.519Z,16.28
2019-03-23T15:27:52.207Z,16.13
2019-03-23T15:30:00.001Z,16.11
2019-03-23T15:32:07.763Z,16.17
2019-03-23T15:34:15.447Z,16.16
2019-03-23T15:36:23.236Z,16.12
2019-03-23T15:38:30.972Z,16.09
2019-03-23T15:40:38.647Z,15.88
2019-03-23T15:42:46.448Z,15.89
2019-03-23T15:44:54.136Z,15.92
2019-03-23T15:47:01.821Z,15.92
2019-03-23T15:49:09.627Z,15.88
2019-03-23T15:51:17.311Z,15.87
2019-03-23T15:53:24.911Z,15.84
2019-03-23T15:55:32.876Z,15.81
2019-03-23T15:57:40.466Z,15.74
2019-03-23T15:59:48.220Z,15.71
2019-03-23T16:01:55.930Z,15.68
2019-03-23T16:04:03.757Z,15.50
2019-03-23T16:06:11.441Z,15.43
2019-03-23T16:08:19.061Z,15.47
2019-03-23T16:10:26.827Z,15.50
2019-03-23T16:12:36.718Z,15.45
2019-03-23T16:14:44.013Z,15.43
2019-03-23T16:16:51.730Z,15.46
2019-03-23T16:18:59.520Z,15.42
2019-03-23T16:21:08.301Z,15.37
2019-03-23T16:23:16.059Z,15.32
2019-03-23T16:25:23.661Z,15.26
2019-03-23T16:27:31.551Z,15.19
2019-03-23T16:29:39.480Z,15.12
2019-03-23T16:31:47.277Z,15.06
2019-03-23T16:33:55.074Z,14.95
2019-03-23T16:36:03.660Z,14.88
2019-03-23T16:38:11.608Z,14.81
2019-03-23T16:40:19.394Z,14.73
2019-03-23T16:42:27.060Z,14.69
2019-03-23T16:44:34.648Z,14.76
2019-03-23T16:46:42.485Z,14.69
2019-03-23T16:48:50.070Z,14.57
2019-03-23T16:50:57.804Z,14.46
2019-03-23T16:53:05.613Z,14.35
2019-03-23T16:55:13.614Z,14.06
2019-03-23T16:57:21.507Z,14.01
2019-03-23T16:59:29.328Z,13.91
2019-03-23T17:01:37.102Z,13.79
2019-03-23T17:03:44.778Z,13.69
2019-03-23T17:05:52.400Z,13.55
2019-03-23T17:08:00.171Z,13.49
2019-03-23T17:10:09.802Z,13.41
2019-03-23T17:12:17.516Z,13.35
2019-03-23T17:14:25.296Z,13.28
2019-03-23T17:16:32.992Z,13.23
2019-03-23T17:18:40.723Z,13.17
2019-03-23T17:20:48.337Z,13.11
2019-03-23T17:22:56.047Z,13.06
2019-03-23T17:25:05.908Z,13.01
2019-03-23T17:27:13.518Z,12.94
2019-03-23T17:29:21.224Z,12.85
2019-03-23T17:31:29.228Z,12.77
2019-03-23T17:33:37.008Z,12.69
2019-03-23T17:35:44.785Z,12.61
2019-03-23T17:37:52.500Z,12.56
2019-03-23T17:40:00.375Z,12.46
2019-03-23T17:42:08.154Z,12.37
2019-03-23T17:44:15.907Z,12.27
2019-03-23T17:46:23.614Z,12.16
2019-03-23T17:48:31.409Z,12.02
2019-03-23T17:50:39.207Z,11.90
2019-03-23T17:52:46.909Z,11.78
2019-03-23T17:54:55.678Z,11.65
2019-03-23T17:57:03.415Z,11.52
2019-03-23T17:59:11.267Z,11.41
2019-03-23T18:01:19.595Z,11.31
2019-03-23T18:03:27.779Z,11.17
2019-03-23T18:05:35.580Z,11.10
2019-03-23T18:07:43.253Z,11.01
2019-03-23T18:09:51.412Z,10.97
2019-03-23T18:11:59.256Z,10.87
2019-03-23T18:14:07.158Z,10.84
2019-03-23T18:16:14.780Z,10.77
2019-03-23T18:18:22.475Z,10.72
2019-03-23T18:20:30.256Z,10.61
2019-03-23T18:22:38.053Z,10.47
2019-03-23T18:24:45.756Z,10.39
2019-03-23T18:26:53.529Z,10.32
2019-03-23T18:29:02.425Z,10.28
2019-03-23T18:31:10.023Z,10.23
2019-03-23T18:33:17.864Z,10.15
2019-03-23T18:35:25.621Z,10.04
2019-03-23T18:37:33.328Z,9.92
2019-03-23T18:39:41.021Z,9.86
2019-03-23T18:41:48.893Z,9.75
2019-03-23T18:43:56.557Z,9.64
2019-03-23T18:46:04.681Z,9.57
2019-03-23T18:48:12.375Z,9.50
2019-03-23T18:50:20.069Z,9.44
2019-03-23T18:52:27.930Z,9.38
2019-03-23T18:54:35.654Z,9.23
2019-03-23T18:56:44.480Z,9.23
2019-03-23T18:58:52.330Z,8.91
2019-03-23T19:01:00.099Z,8.98
2019-03-23T19:03:08.089Z,8.94
2019-03-23T19:05:15.682Z,8.91
2019-03-23T19:07:23.366Z,8.82
2019-03-23T19:09:32.099Z,8.76
2019-03-23T19:11:39.815Z,8.70
2019-03-23T19:13:47.531Z,8.67
2019-03-23T19:15:55.214Z,8.60
2019-03-23T19:18:02.977Z,8.55
2019-03-23T19:20:10.903Z,8.52
2019-03-23T19:22:18.594Z,8.50
2019-03-23T19:24:26.430Z,8.50
2019-03-23T19:26:34.217Z,8.47
2019-03-23T19:28:41.920Z,8.46
2019-03-23T19:30:50.683Z,8.46
2019-03-23T19:32:58.773Z,8.44
2019-03-23T19:35:08.117Z,8.41
2019-03-23T19:37:15.842Z,8.33
2019-03-23T19:39:25.067Z,8.31
2019-03-23T19:41:32.823Z,8.29
2019-03-23T19:43:48.224Z,8.25
2019-03-23T19:45:49.723Z,8.21
2019-03-23T19:47:57.336Z,8.15
2019-03-23T19:50:07.333Z,8.09
2019-03-23T19:52:15.031Z,8.04
2019-03-23T19:54:22.754Z,7.99
2019-03-23T19:56:30.487Z,7.93
2019-03-23T19:58:38.253Z,7.92
2019-03-23T20:00:46.221Z,7.88
2019-03-23T20:02:54.882Z,7.87
2019-03-23T20:05:02.822Z,7.86
2019-03-23T20:07:10.852Z,7.81
2019-03-23T20:09:18.553Z,7.80
2019-03-23T20:11:26.477Z,7.78
2019-03-23T20:13:35.715Z,7.75
2019-03-23T20:15:43.574Z,7.72
2019-03-23T20:17:51.530Z,7.70
2019-03-23T20:19:59.386Z,7.69
2019-03-23T20:22:08.047Z,7.66
2019-03-23T20:24:16.498Z,7.61
2019-03-23T20:26:24.346Z,7.54
2019-03-23T20:28:31.946Z,7.48
2019-03-23T20:30:39.881Z,7.42
2019-03-23T20:32:47.666Z,7.34
2019-03-23T20:34:56.562Z,7.29
2019-03-23T20:37:04.257Z,7.27
2019-03-23T20:39:12.150Z,7.27
2019-03-23T20:41:19.856Z,7.23
2019-03-23T20:43:27.665Z,7.21
2019-03-23T20:45:35.353Z,7.17
2019-03-23T20:47:43.290Z,7.10
2019-03-23T20:49:50.991Z,7.08
2019-03-23T20:51:58.843Z,7.06
2019-03-23T20:54:07.499Z,7.06
2019-03-23T20:56:15.270Z,7.03
2019-03-23T20:58:23.022Z,7.01
2019-03-23T21:00:30.829Z,6.98
2019-03-23T21:02:38.618Z,6.94
2019-03-23T21:04:48.428Z,6.89
2019-03-23T21:06:56.208Z,6.87
2019-03-23T21:09:05.563Z,6.85
2019-03-23T21:11:13.268Z,6.84
2019-03-23T21:13:21.019Z,6.82
2019-03-23T21:15:28.609Z,6.80
2019-03-23T21:17:36.330Z,6.76
2019-03-23T21:19:44.154Z,6.76
2019-03-23T21:21:51.806Z,6.75
2019-03-23T21:23:59.524Z,6.74
2019-03-23T21:26:07.302Z,6.71
2019-03-23T21:28:15.053Z,6.70
2019-03-23T21:30:23.564Z,6.67
2019-03-23T21:32:31.325Z,6.65
2019-03-23T21:34:39.188Z,6.64
2019-03-23T21:36:47.978Z,6.63
2019-03-23T21:38:55.574Z,6.60
2019-03-23T21:41:03.187Z,6.50
2019-03-23T21:43:10.808Z,6.47
2019-03-23T21:45:18.837Z,6.42
2019-03-23T21:47:26.601Z,6.40
2019-03-23T21:49:34.320Z,6.38
2019-03-23T21:51:42.154Z,6.37
2019-03-23T21:53:49.756Z,6.36
2019-03-23T21:55:57.529Z,6.34
2019-03-23T21:58:05.257Z,6.34
2019-03-23T22:00:16.290Z,6.35
2019-03-23T22:02:23.927Z,6.34
2019-03-23T22:04:31.623Z,6.32
2019-03-23T22:06:40.108Z,6.32
2019-03-23T22:08:48.000Z,6.27
2019-03-23T22:10:55.784Z,6.21
2019-03-23T22:13:03.476Z,6.19
2019-03-23T22:15:11.782Z,6.07
2019-03-23T22:17:19.377Z,6.04
2019-03-23T22:19:27.068Z,5.99
2019-03-23T22:21:34.804Z,6.00
2019-03-23T22:23:42.485Z,5.94
2019-03-23T22:25:50.076Z,5.99
2019-03-23T22:27:58.348Z,5.94
2019-03-23T22:30:13.380Z,5.90
2019-03-23T22:32:20.969Z,5.89
2019-03-23T22:34:29.102Z,5.90
2019-03-23T22:36:36.799Z,5.84
2019-03-23T22:38:44.487Z,5.82
2019-03-23T22:40:52.449Z,5.76
2019-03-23T22:43:00.042Z,5.66
2019-03-23T22:45:11.483Z,5.59
2019-03-23T22:47:19.679Z,5.46
2019-03-23T22:49:27.384Z,5.27
2019-03-23T22:51:36.121Z,5.25
2019-03-23T22:53:43.948Z,5.14
2019-03-23T22:55:51.766Z,5.05
2019-03-23T22:57:59.466Z,5.01
2019-03-23T23:00:21.243Z,5.05
2019-03-23T23:02:30.718Z,5.06
2019-03-23T23:04:39.343Z,5.02
2019-03-23T23:06:47.848Z,5.05
2019-03-23T23:08:55.686Z,5.05
2019-03-23T23:11:03.760Z,5.07
2019-03-23T23:13:11.800Z,5.10
2019-03-23T23:15:26.039Z,5.15
2019-03-23T23:17:33.725Z,5.19
2019-03-23T23:19:41.473Z,5.23
2019-03-23T23:21:50.132Z,5.27
2019-03-23T23:23:57.841Z,5.31
2019-03-23T23:26:05.762Z,5.33
2019-03-23T23:28:13.922Z,5.37
2019-03-23T23:30:21.580Z,5.33
2019-03-23T23:32:29.299Z,5.36
2019-03-23T23:34:37.077Z,5.38
2019-03-23T23:36:44.772Z,5.41
2019-03-23T23:38:52.732Z,5.40
2019-03-23T23:41:00.566Z,5.42
2019-03-23T23:43:08.300Z,5.39
2019-03-23T23:45:16.247Z,5.42
2019-03-23T23:47:23.947Z,5.38
2019-03-23T23:49:31.641Z,5.15
2019-03-23T23:51:49.574Z,5.11
2019-03-23T23:53:48.655Z,4.82
2019-03-23T23:55:56.514Z,5.02
2019-03-23T23:58:04.419Z,4.89
